Time;durP1;ratioP1;P1;durP2;ratioP2;P2;SDS_P1;SDS_P2;PMS_P1;PMS_P2;Temp;Humidity;BMP_temperature;BMP_pressure;BME280_temperature;BME280_humidity;BME280_pressure;Samples;Min_cycle;Max_cycle;Signal;HPM_P1;HPM_P2
2023/08/25 00:00:30;;;;;;;36.72;31.02;;;19.90;99.90;;;;;;5075361;28;20120;-57
2023/08/25 00:02:55;;;;;;;36.80;30.27;;;19.90;99.90;;;;;;5076915;28;20158;-57
2023/08/25 00:05:21;;;;;;;40.38;31.67;;;19.90;99.90;;;;;;5056116;28;20043;-58
2023/08/25 00:07:47;;;;;;;38.10;30.73;;;19.90;99.90;;;;;;5075844;28;20390;-57
2023/08/25 00:10:13;;;;;;;39.92;30.88;;;19.90;99.90;;;;;;5075716;28;20130;-58
2023/08/25 00:12:39;;;;;;;37.30;32.03;;;19.90;99.90;;;;;;5076873;28;20087;-56
2023/08/25 00:15:05;;;;;;;37.20;31.73;;;19.80;99.90;;;;;;5075373;28;20082;-59
2023/08/25 00:17:32;;;;;;;41.10;32.22;;;19.80;99.90;;;;;;5075571;28;20032;-57
2023/08/25 00:19:59;;;;;;;40.50;31.52;;;19.70;99.90;;;;;;5059001;28;20052;-57
2023/08/25 00:22:24;;;;;;;42.38;32.88;;;19.70;99.90;;;;;;5058855;28;20040;-56
2023/08/25 00:24:52;;;;;;;42.13;32.55;;;19.70;99.90;;;;;;5074292;28;20077;-57
2023/08/25 00:27:19;;;;;;;41.88;32.85;;;19.70;99.90;;;;;;5074450;28;20040;-55
2023/08/25 00:29:44;;;;;;;43.50;33.70;;;19.70;99.90;;;;;;5073455;28;20487;-57
2023/08/25 00:32:10;;;;;;;46.55;33.38;;;19.60;99.90;;;;;;5059270;28;20146;-56
2023/08/25 00:34:36;;;;;;;41.72;33.13;;;19.60;99.90;;;;;;5075907;28;20449;-57
2023/08/25 00:37:01;;;;;;;45.58;33.92;;;19.60;99.90;;;;;;5075099;28;20090;-58
2023/08/25 00:39:27;;;;;;;42.28;34.55;;;19.60;99.90;;;;;;5061201;28;20044;-57
2023/08/25 00:41:54;;;;;;;45.33;34.53;;;19.60;99.90;;;;;;5074277;28;20094;-57
2023/08/25 00:44:20;;;;;;;47.83;33.35;;;19.60;99.90;;;;;;5075410;28;20501;-57
2023/08/25 00:46:47;;;;;;;41.80;34.63;;;19.60;99.90;;;;;;5075129;28;20033;-57
2023/08/25 00:49:13;;;;;;;50.25;36.60;;;19.60;99.90;;;;;;5056873;28;20050;-57
2023/08/25 00:51:39;;;;;;;47.58;35.55;;;19.60;99.90;;;;;;5075195;28;20052;-57
2023/08/25 00:54:06;;;;;;;47.88;36.78;;;19.60;99.90;;;;;;5075296;28;20043;-56
2023/08/25 00:56:32;;;;;;;48.65;34.75;;;19.60;99.90;;;;;;5078945;28;20427;-56
2023/08/25 00:58:58;;;;;;;43.03;35.42;;;19.60;99.90;;;;;;5093884;27;20155;-55
2023/08/25 01:01:24;;;;;;;46.90;35.63;;;19.60;99.90;;;;;;5094374;28;20040;-57
2023/08/25 01:03:51;;;;;;;48.10;36.03;;;19.60;99.90;;;;;;5095986;28;20072;-57
2023/08/25 01:06:16;;;;;;;47.35;34.78;;;19.60;99.90;;;;;;5094247;28;20047;-58
2023/08/25 01:08:43;;;;;;;49.67;36.15;;;19.60;99.90;;;;;;5085067;27;20391;-58
2023/08/25 01:11:37;;;;;;;48.10;36.45;;;19.60;99.90;;;;;;5077195;28;20052;-57
2023/08/25 01:14:13;;;;;;;49.17;36.72;;;19.70;99.90;;;;;;5092478;28;20079;-56
2023/08/25 01:16:57;;;;;;;49.28;36.13;;;19.70;99.90;;;;;;5094590;28;20052;-57
2023/08/25 01:19:35;;;;;;;50.00;38.10;;;19.70;99.90;;;;;;5077338;28;20505;-57
2023/08/25 01:22:06;;;;;;;53.33;37.75;;;19.80;99.90;;;;;;5093776;28;20043;-57
2023/08/25 01:24:35;;;;;;;48.60;36.38;;;19.80;99.90;;;;;;5094194;28;20114;-57
2023/08/25 01:27:02;;;;;;;51.95;38.05;;;19.80;99.90;;;;;;5094380;28;20067;-57
2023/08/25 01:29:27;;;;;;;50.28;37.00;;;19.80;99.90;;;;;;5096118;28;20035;-56
2023/08/25 01:31:54;;;;;;;46.35;34.67;;;19.80;99.90;;;;;;5094380;28;20504;-57
2023/08/25 01:34:20;;;;;;;48.28;36.03;;;19.80;99.90;;;;;;5093449;28;20091;-57
2023/08/25 01:36:57;;;;;;;47.60;34.92;;;19.80;99.90;;;;;;5094085;27;20040;-57
2023/08/25 01:39:25;;;;;;;47.40;34.75;;;19.80;99.90;;;;;;5094662;28;20497;-57
2023/08/25 01:41:57;;;;;;;45.10;34.83;;;19.80;99.90;;;;;;5094693;28;20097;-56
2023/08/25 01:44:25;;;;;;;47.65;34.80;;;19.80;99.90;;;;;;5094329;28;20051;-56
2023/08/25 01:46:57;;;;;;;48.88;33.85;;;19.70;99.90;;;;;;5094468;28;20137;-56
2023/08/25 01:49:24;;;;;;;46.35;35.00;;;19.70;99.90;;;;;;5092761;28;20092;-57
2023/08/25 01:51:50;;;;;;;42.88;34.17;;;19.70;99.90;;;;;;5094176;28;20075;-56
2023/08/25 01:54:15;;;;;;;44.55;34.50;;;19.70;99.90;;;;;;5094321;28;20077;-56
2023/08/25 01:56:41;;;;;;;47.13;34.97;;;19.70;99.90;;;;;;5095407;28;20109;-58
2023/08/25 01:59:07;;;;;;;48.88;35.70;;;19.60;99.90;;;;;;5065460;27;20047;-57
2023/08/25 02:01:33;;;;;;;47.33;35.80;;;19.60;99.90;;;;;;5097757;28;20038;-57
2023/08/25 02:03:58;;;;;;;48.30;35.67;;;19.60;99.90;;;;;;5099519;27;20482;-56
2023/08/25 02:06:24;;;;;;;52.08;35.90;;;19.50;99.90;;;;;;5097185;28;20123;-57
2023/08/25 02:08:50;;;;;;;51.95;36.10;;;19.50;99.90;;;;;;5082778;27;20035;-58
2023/08/25 02:11:15;;;;;;;45.17;34.78;;;19.50;99.90;;;;;;5098142;28;20036;-55
2023/08/25 02:13:41;;;;;;;48.22;35.47;;;19.50;99.90;;;;;;5099230;28;20070;-56
2023/08/25 02:16:07;;;;;;;50.13;35.92;;;19.40;99.90;;;;;;5090795;27;20050;-55
2023/08/25 02:18:32;;;;;;;50.42;35.53;;;19.40;99.90;;;;;;5097494;28;20543;-57
2023/08/25 02:20:58;;;;;;;50.60;35.15;;;19.40;99.90;;;;;;5099758;27;20032;-58
2023/08/25 02:23:24;;;;;;;50.83;35.10;;;19.40;99.90;;;;;;5079641;28;20039;-58
2023/08/25 02:25:51;;;;;;;50.03;36.15;;;19.40;99.90;;;;;;5097234;27;20043;-56
2023/08/25 02:28:17;;;;;;;44.95;33.85;;;19.40;99.90;;;;;;5096547;28;20462;-56
2023/08/25 02:30:43;;;;;;;50.58;35.28;;;19.40;99.90;;;;;;5096208;28;20047;-57
2023/08/25 02:33:08;;;;;;;51.20;36.28;;;19.40;99.90;;;;;;5080427;28;20452;-55
2023/08/25 02:35:34;;;;;;;49.40;34.40;;;19.40;99.90;;;;;;5098154;28;20047;-56
2023/08/25 02:38:04;;;;;;;52.53;36.00;;;19.40;99.90;;;;;;5097570;28;20043;-58
2023/08/25 02:40:30;;;;;;;53.78;36.08;;;19.40;99.90;;;;;;5096525;27;20040;-56
2023/08/25 02:42:56;;;;;;;52.38;35.75;;;19.40;99.90;;;;;;5095975;28;20032;-56
2023/08/25 02:45:25;;;;;;;54.55;36.58;;;19.40;99.90;;;;;;5096801;27;22143;-57
2023/08/25 02:47:54;;;;;;;57.35;36.72;;;19.40;99.90;;;;;;5097903;28;20044;-55
2023/08/25 02:50:21;;;;;;;53.28;36.40;;;19.40;99.90;;;;;;5095358;28;20044;-57
2023/08/25 02:52:47;;;;;;;55.08;37.25;;;19.40;99.90;;;;;;5097557;27;20043;-57
2023/08/25 02:55:16;;;;;;;51.13;36.05;;;19.40;99.90;;;;;;5097751;27;21430;-57
2023/08/25 02:57:49;;;;;;;50.85;36.63;;;19.40;99.90;;;;;;5097591;27;20048;-57
2023/08/25 03:00:17;;;;;;;55.75;36.80;;;19.40;99.90;;;;;;5095877;28;20390;-58
2023/08/25 03:02:43;;;;;;;55.15;38.13;;;19.40;99.90;;;;;;5097301;27;20044;-57
2023/08/25 03:05:11;;;;;;;50.53;35.58;;;19.50;99.90;;;;;;5098259;27;20043;-56
2023/08/25 03:07:37;;;;;;;51.97;35.10;;;19.40;99.90;;;;;;5050833;28;20447;-57
2023/08/25 03:10:03;;;;;;;54.85;38.58;;;19.50;99.90;;;;;;5059680;28;20123;-57
2023/08/25 03:12:29;;;;;;;56.33;37.45;;;19.50;99.90;;;;;;5096938;27;20035;-56
2023/08/25 03:14:55;;;;;;;51.00;36.13;;;19.50;99.90;;;;;;5060340;28;20039;-57
2023/08/25 03:17:22;;;;;;;53.17;37.15;;;19.50;99.90;;;;;;5091921;27;20039;-58
2023/08/25 03:19:48;;;;;;;50.88;36.25;;;19.50;99.90;;;;;;5097101;27;20111;-57
2023/08/25 03:22:14;;;;;;;53.17;34.88;;;19.50;99.90;;;;;;5098028;28;20039;-56
2023/08/25 03:24:40;;;;;;;59.00;37.95;;;19.50;99.90;;;;;;5097049;27;20043;-59
2023/08/25 03:27:05;;;;;;;53.53;36.63;;;19.50;99.90;;;;;;5097412;28;20075;-57
2023/08/25 03:29:31;;;;;;;57.17;37.85;;;19.40;99.90;;;;;;5095910;27;20047;-58
2023/08/25 03:31:58;;;;;;;57.85;37.00;;;19.50;99.90;;;;;;5096709;27;20046;-57
2023/08/25 03:34:24;;;;;;;62.33;38.13;;;19.50;99.90;;;;;;5096492;28;20092;-57
2023/08/25 03:36:50;;;;;;;52.30;36.45;;;19.50;99.90;;;;;;5097020;27;20047;-56
2023/08/25 03:39:16;;;;;;;53.92;36.90;;;19.40;99.90;;;;;;5095468;27;20036;-58
2023/08/25 03:41:42;;;;;;;58.22;36.90;;;19.40;99.90;;;;;;5095863;28;20043;-56
2023/08/25 03:44:07;;;;;;;55.97;36.45;;;19.40;99.90;;;;;;5096960;28;20468;-57
2023/08/25 03:46:33;;;;;;;61.28;38.72;;;19.40;99.90;;;;;;5096044;28;20036;-57
2023/08/25 03:48:59;;;;;;;58.45;37.72;;;19.40;99.90;;;;;;5049324;28;20043;-57
2023/08/25 03:51:25;;;;;;;55.90;37.58;;;19.50;99.90;;;;;;5077976;28;20118;-57
2023/08/25 03:53:51;;;;;;;53.47;37.75;;;19.40;99.90;;;;;;5095473;27;21121;-57
2023/08/25 03:56:17;;;;;;;54.50;36.90;;;19.40;99.90;;;;;;5095752;28;20067;-57
2023/08/25 03:58:43;;;;;;;54.97;37.78;;;19.40;99.90;;;;;;5078534;28;20401;-56
2023/08/25 04:01:08;;;;;;;53.40;36.60;;;19.40;99.90;;;;;;5094340;27;20032;-58
2023/08/25 04:03:34;;;;;;;53.90;37.22;;;19.40;99.90;;;;;;5094594;28;20508;-57
2023/08/25 04:06:00;;;;;;;57.00;37.75;;;19.40;99.90;;;;;;5096392;28;20054;-57
2023/08/25 04:08:25;;;;;;;51.75;37.00;;;19.40;99.90;;;;;;5095378;27;20113;-56
2023/08/25 04:10:52;;;;;;;58.75;38.13;;;19.30;99.90;;;;;;5094961;28;20036;-56
2023/08/25 04:13:18;;;;;;;59.97;38.50;;;19.30;99.90;;;;;;5075791;28;20089;-57
2023/08/25 04:15:44;;;;;;;55.97;38.45;;;19.30;99.90;;;;;;5093652;28;20039;-57
2023/08/25 04:18:10;;;;;;;58.38;39.55;;;19.30;99.90;;;;;;5096437;28;20047;-58
2023/08/25 04:20:36;;;;;;;60.05;39.80;;;19.30;99.90;;;;;;5094004;28;20157;-56
2023/08/25 04:23:02;;;;;;;59.42;38.42;;;19.30;99.90;;;;;;5094843;28;20067;-55
2023/08/25 04:25:29;;;;;;;62.40;39.60;;;19.20;99.90;;;;;;5095415;28;20390;-58
2023/08/25 04:27:56;;;;;;;63.97;39.65;;;19.20;99.90;;;;;;5096415;28;20119;-57
2023/08/25 04:30:25;;;;;;;57.83;38.47;;;19.20;99.90;;;;;;5077843;28;20092;-56
2023/08/25 04:32:51;;;;;;;63.92;40.90;;;19.20;99.90;;;;;;5078703;28;20043;-55
2023/08/25 04:35:17;;;;;;;69.90;40.67;;;19.20;99.90;;;;;;5096969;28;20640;-58
2023/08/25 04:37:47;;;;;;;61.20;39.28;;;19.20;99.90;;;;;;5095545;28;20338;-57
2023/08/25 04:40:16;;;;;;;62.50;39.40;;;19.20;99.90;;;;;;5094507;28;20038;-56
2023/08/25 04:42:42;;;;;;;66.72;41.25;;;19.20;99.90;;;;;;5094598;28;20122;-57
2023/08/25 04:45:10;;;;;;;66.32;40.30;;;19.20;99.90;;;;;;5094137;28;20043;-56
2023/08/25 04:47:36;;;;;;;61.58;39.83;;;19.20;99.90;;;;;;5077702;28;20077;-57
2023/08/25 04:50:03;;;;;;;61.42;39.75;;;19.20;99.90;;;;;;5077542;28;20044;-58
2023/08/25 04:52:34;;;;;;;66.00;39.63;;;19.20;99.90;;;;;;5078099;28;20510;-56
2023/08/25 04:55:00;;;;;;;65.00;39.42;;;19.20;99.90;;;;;;5095005;28;20052;-57
2023/08/25 04:57:26;;;;;;;66.28;41.20;;;19.20;99.90;;;;;;5094646;28;20040;-57
2023/08/25 04:59:52;;;;;;;65.93;40.00;;;19.30;99.90;;;;;;5090656;28;20040;-57
2023/08/25 05:02:17;;;;;;;58.97;38.63;;;19.30;99.90;;;;;;5095068;28;20702;-57
2023/08/25 05:04:43;;;;;;;69.05;41.15;;;19.30;99.90;;;;;;5095284;28;20146;-55
2023/08/25 05:07:09;;;;;;;68.85;41.42;;;19.30;99.90;;;;;;5094706;28;20051;-56
2023/08/25 05:09:34;;;;;;;65.15;40.72;;;19.30;99.90;;;;;;5094225;28;20504;-58
2023/08/25 05:12:00;;;;;;;67.03;42.80;;;19.30;99.90;;;;;;5095055;28;20044;-56
2023/08/25 05:14:26;;;;;;;71.13;42.92;;;19.30;99.90;;;;;;5094731;28;20043;-57
2023/08/25 05:16:52;;;;;;;71.95;43.63;;;19.30;99.90;;;;;;5076617;28;20043;-56
2023/08/25 05:19:17;;;;;;;70.55;43.15;;;19.40;99.90;;;;;;5075958;28;20095;-58
2023/08/25 05:21:43;;;;;;;74.47;41.63;;;19.40;99.90;;;;;;5093851;28;20040;-57
2023/08/25 05:24:20;;;;;;;71.88;44.90;;;19.30;99.90;;;;;;5094606;28;20043;-55
2023/08/25 05:26:56;;;;;;;72.85;43.25;;;19.40;99.90;;;;;;5076597;28;20078;-56
2023/08/25 05:29:23;;;;;;;66.63;43.60;;;19.40;99.90;;;;;;5061527;28;20431;-57
2023/08/25 05:31:49;;;;;;;73.35;43.75;;;19.40;99.90;;;;;;5076513;28;20047;-57
2023/08/25 05:34:15;;;;;;;67.22;41.28;;;19.40;99.90;;;;;;5074764;28;20115;-57
2023/08/25 05:36:42;;;;;;;75.70;42.75;;;19.40;99.90;;;;;;5094079;28;20406;-57
2023/08/25 05:39:08;;;;;;;72.13;42.47;;;19.40;99.90;;;;;;5095463;28;20463;-60
2023/08/25 05:41:34;;;;;;;70.05;42.38;;;19.50;99.90;;;;;;5097195;28;20446;-60
2023/08/25 05:44:01;;;;;;;69.68;42.42;;;19.50;99.90;;;;;;5098045;28;20044;-61
2023/08/25 05:46:28;;;;;;;76.32;42.05;;;19.50;99.90;;;;;;5096829;28;20039;-60
2023/08/25 05:48:54;;;;;;;77.55;42.67;;;19.50;99.90;;;;;;5069401;28;20055;-61
2023/08/25 05:51:20;;;;;;;71.53;43.08;;;19.50;99.90;;;;;;5099628;28;20121;-60
2023/08/25 05:53:45;;;;;;;70.07;42.72;;;19.50;99.90;;;;;;5099775;28;20047;-61
2023/08/25 05:56:11;;;;;;;70.90;43.47;;;19.50;99.90;;;;;;5096198;28;20052;-60
2023/08/25 05:58:37;;;;;;;73.03;45.35;;;19.60;99.90;;;;;;5098123;28;20071;-60
2023/08/25 06:01:02;;;;;;;71.57;43.22;;;19.60;99.90;;;;;;5097442;28;20493;-60
2023/08/25 06:03:28;;;;;;;79.50;45.13;;;19.60;99.90;;;;;;5100174;28;20036;-61
2023/08/25 06:05:54;;;;;;;72.97;43.90;;;19.60;99.90;;;;;;5097593;28;20048;-60
2023/08/25 06:08:20;;;;;;;76.55;44.42;;;19.60;99.90;;;;;;5081179;28;20043;-60
2023/08/25 06:10:47;;;;;;;70.65;43.60;;;19.70;99.90;;;;;;5097283;28;20127;-60
2023/08/25 06:13:13;;;;;;;67.72;42.72;;;19.70;99.90;;;;;;5097168;28;20043;-59
2023/08/25 06:15:39;;;;;;;78.47;44.30;;;19.70;99.90;;;;;;5097225;28;20044;-61
2023/08/25 06:18:05;;;;;;;73.80;42.75;;;19.70;99.90;;;;;;5098985;28;20048;-61
2023/08/25 06:20:31;;;;;;;78.75;44.03;;;19.70;99.90;;;;;;5087547;28;20032;-61
2023/08/25 06:22:57;;;;;;;82.95;45.13;;;19.70;99.90;;;;;;5079191;28;20036;-61
2023/08/25 06:25:23;;;;;;;78.07;44.95;;;19.70;99.90;;;;;;5096564;28;20031;-60
2023/08/25 06:27:49;;;;;;;82.65;47.00;;;19.70;99.90;;;;;;5097044;28;20043;-60
2023/08/25 06:30:16;;;;;;;80.93;44.30;;;19.70;99.90;;;;;;5097537;28;20118;-59
2023/08/25 06:32:45;;;;;;;86.93;45.83;;;19.70;99.90;;;;;;5097150;28;20123;-60
2023/08/25 06:35:14;;;;;;;78.32;45.50;;;19.80;99.90;;;;;;5097387;28;20119;-57
2023/08/25 06:37:39;;;;;;;89.90;47.72;;;19.80;99.90;;;;;;5079791;28;20044;-60
2023/08/25 06:40:09;;;;;;;80.97;45.40;;;19.80;99.90;;;;;;5097208;28;20211;-61
2023/08/25 06:42:35;;;;;;;81.40;45.83;;;19.90;99.90;;;;;;5096242;28;20058;-60
2023/08/25 06:45:01;;;;;;;80.68;45.17;;;19.90;99.90;;;;;;5097300;28;20043;-58
2023/08/25 06:47:27;;;;;;;75.82;43.88;;;20.00;99.90;;;;;;5101303;28;20449;-59
2023/08/25 06:49:54;;;;;;;69.57;42.47;;;20.00;99.90;;;;;;5102270;28;20044;-59
2023/08/25 06:52:20;;;;;;;66.63;37.80;;;20.10;99.90;;;;;;5100996;28;20104;-61
2023/08/25 06:54:46;;;;;;;64.95;37.50;;;20.10;99.90;;;;;;5100327;28;20533;-60
2023/08/25 06:57:12;;;;;;;58.67;36.35;;;20.10;99.90;;;;;;5102096;28;20086;-61
2023/08/25 06:59:38;;;;;;;58.10;36.10;;;20.10;99.90;;;;;;5101931;27;20162;-58
2023/08/25 07:02:04;;;;;;;60.15;35.45;;;20.10;99.90;;;;;;5101907;28;20036;-60
2023/08/25 07:04:30;;;;;;;52.90;36.17;;;20.10;99.90;;;;;;5101563;28;20394;-59
2023/08/25 07:06:55;;;;;;;60.50;37.80;;;20.10;99.90;;;;;;5080964;28;20043;-60
2023/08/25 07:09:21;;;;;;;54.80;37.10;;;20.20;99.90;;;;;;5100651;28;20055;-60
2023/08/25 07:11:47;;;;;;;57.60;38.00;;;20.30;99.90;;;;;;5083347;28;20080;-60
2023/08/25 07:14:13;;;;;;;61.70;39.13;;;20.40;99.90;;;;;;5099507;28;20048;-61
2023/08/25 07:16:39;;;;;;;64.13;37.03;;;20.50;99.90;;;;;;5098503;28;20048;-61
2023/08/25 07:19:05;;;;;;;57.70;36.40;;;20.50;99.90;;;;;;5099112;28;20031;-60
2023/08/25 07:21:30;;;;;;;52.30;35.42;;;20.60;99.90;;;;;;5100519;28;20042;-61
2023/08/25 07:23:56;;;;;;;56.33;35.88;;;20.60;99.90;;;;;;5084372;28;20031;-60
2023/08/25 07:26:22;;;;;;;50.28;32.08;;;20.70;99.90;;;;;;5101227;28;20035;-61
2023/08/25 07:28:48;;;;;;;53.85;34.20;;;20.70;99.90;;;;;;5101882;28;20077;-60
2023/08/25 07:31:14;;;;;;;52.60;33.75;;;20.80;99.90;;;;;;5083663;28;20067;-60
2023/08/25 07:33:41;;;;;;;54.35;33.53;;;20.80;99.90;;;;;;5100904;28;20040;-59
2023/08/25 07:36:07;;;;;;;48.53;32.08;;;20.90;99.90;;;;;;5101510;28;20036;-61
2023/08/25 07:38:32;;;;;;;49.85;32.10;;;20.90;99.90;;;;;;5081383;28;20042;-61
2023/08/25 07:40:58;;;;;;;49.92;32.95;;;20.90;99.90;;;;;;5102213;28;20398;-61
2023/08/25 07:43:24;;;;;;;50.20;32.58;;;20.90;99.90;;;;;;5099097;28;20470;-60
2023/08/25 07:45:52;;;;;;;48.13;33.10;;;20.80;99.90;;;;;;5101098;28;20115;-60
2023/08/25 07:48:18;;;;;;;51.97;32.60;;;20.90;99.90;;;;;;5084656;28;20074;-61
2023/08/25 07:50:43;;;;;;;49.97;32.20;;;20.80;99.90;;;;;;5101936;28;20103;-59
2023/08/25 07:53:12;;;;;;;55.35;35.00;;;20.90;99.90;;;;;;5101746;28;20057;-59
2023/08/25 07:55:39;;;;;;;47.97;32.47;;;20.80;99.90;;;;;;5100714;28;20043;-60
2023/08/25 07:58:06;;;;;;;48.78;32.30;;;20.90;99.90;;;;;;5100550;28;20571;-61
2023/08/25 08:00:32;;;;;;;44.05;29.70;;;20.90;99.90;;;;;;5082802;28;20047;-59
2023/08/25 08:02:58;;;;;;;45.72;30.35;;;20.90;99.90;;;;;;5101473;28;20921;-60
2023/08/25 08:05:24;;;;;;;44.35;30.70;;;20.90;99.90;;;;;;5100935;28;20090;-61
2023/08/25 08:07:50;;;;;;;46.33;29.75;;;21.00;99.90;;;;;;5101164;28;20072;-60
2023/08/25 08:10:17;;;;;;;45.50;28.58;;;20.90;99.90;;;;;;5083026;28;20200;-61
2023/08/25 08:12:43;;;;;;;28.10;19.05;;;21.00;99.90;;;;;;5100818;28;20048;-61
2023/08/25 08:15:10;;;;;;;28.90;18.70;;;21.00;99.90;;;;;;5099596;27;20036;-58
2023/08/25 08:17:36;;;;;;;30.10;18.63;;;21.00;99.90;;;;;;5100865;28;20082;-60
2023/08/25 08:20:05;;;;;;;27.88;18.30;;;21.00;99.90;;;;;;5100950;28;20692;-59
2023/08/25 08:22:31;;;;;;;23.95;17.50;;;21.00;99.90;;;;;;5101081;28;20489;-59
2023/08/25 08:24:57;;;;;;;29.35;18.02;;;21.00;99.90;;;;;;5099469;28;20028;-61
2023/08/25 08:27:23;;;;;;;26.65;17.50;;;21.10;99.90;;;;;;5100944;28;20100;-57
2023/08/25 08:29:49;;;;;;;33.58;19.08;;;21.20;99.90;;;;;;5100990;28;20069;-60
2023/08/25 08:32:15;;;;;;;27.15;18.48;;;21.20;99.90;;;;;;5101705;28;20158;-61
2023/08/25 08:34:40;;;;;;;28.05;18.48;;;21.20;99.90;;;;;;5100127;28;20124;-60
2023/08/25 08:37:06;;;;;;;28.05;17.88;;;21.20;99.90;;;;;;5082131;28;20134;-60
2023/08/25 08:39:39;;;;;;;25.10;18.02;;;21.30;99.90;;;;;;5081656;28;20039;-60
2023/08/25 08:42:09;;;;;;;26.35;18.58;;;21.30;99.90;;;;;;5101775;28;20453;-61
2023/08/25 08:44:36;;;;;;;26.63;18.95;;;21.30;99.90;;;;;;5099662;28;20406;-60
2023/08/25 08:47:06;;;;;;;28.58;19.42;;;21.40;99.90;;;;;;5099959;28;20740;-59
2023/08/25 08:49:33;;;;;;;30.13;19.67;;;21.40;99.90;;;;;;5098589;28;20395;-59
2023/08/25 08:52:01;;;;;;;29.52;18.67;;;21.60;99.90;;;;;;5099561;28;20131;-60
2023/08/25 08:54:28;;;;;;;30.67;19.60;;;21.80;99.90;;;;;;5099210;28;20081;-58
2023/08/25 08:56:54;;;;;;;28.17;20.45;;;21.90;99.90;;;;;;5101474;28;20410;-60
2023/08/25 08:59:20;;;;;;;31.75;19.42;;;22.10;99.90;;;;;;5099455;28;20074;-61
2023/08/25 09:01:48;;;;;;;26.15;18.77;;;22.30;99.90;;;;;;5098441;28;20103;-59
2023/08/25 09:04:22;;;;;;;25.83;18.40;;;22.40;99.90;;;;;;5081548;28;20032;-61
2023/08/25 09:06:51;;;;;;;28.38;18.65;;;22.40;99.90;;;;;;5101482;28;20455;-58
2023/08/25 09:09:19;;;;;;;30.27;19.23;;;22.40;99.90;;;;;;5098024;28;20118;-60
2023/08/25 09:11:48;;;;;;;28.17;19.45;;;22.40;99.90;;;;;;5098198;28;20142;-59
2023/08/25 09:14:27;;;;;;;23.65;17.60;;;22.30;99.90;;;;;;5099175;28;20027;-61
2023/08/25 09:16:59;;;;;;;29.10;18.83;;;22.40;99.90;;;;;;5099740;28;20051;-61
2023/08/25 09:19:30;;;;;;;29.02;18.67;;;22.40;99.90;;;;;;5100741;28;20035;-58
2023/08/25 09:21:56;;;;;;;26.13;18.40;;;22.40;99.90;;;;;;5100953;28;20139;-61
2023/08/25 09:24:22;;;;;;;28.17;18.67;;;22.40;99.90;;;;;;5098778;28;20115;-61
2023/08/25 09:26:49;;;;;;;29.38;19.65;;;22.40;99.90;;;;;;5097908;28;20046;-57
2023/08/25 09:29:15;;;;;;;29.90;19.63;;;22.40;99.90;;;;;;5100839;28;20047;-61
2023/08/25 09:31:42;;;;;;;25.67;18.52;;;22.40;99.90;;;;;;5097568;28;20048;-60
2023/08/25 09:34:10;;;;;;;29.38;18.63;;;22.30;99.90;;;;;;5103423;28;20043;-61
2023/08/25 09:36:51;;;;;;;25.25;17.92;;;22.30;99.90;;;;;;5098740;28;20039;-58
2023/08/25 09:39:16;;;;;;;29.77;19.58;;;22.40;99.90;;;;;;5099717;28;20023;-59
2023/08/25 09:41:44;;;;;;;31.45;19.50;;;22.50;99.90;;;;;;5099546;28;20040;-61
2023/08/25 09:44:10;;;;;;;30.02;19.08;;;22.60;99.90;;;;;;5100327;28;20036;-60
2023/08/25 09:46:36;;;;;;;28.83;19.10;;;22.60;99.90;;;;;;5102328;28;20042;-60
2023/08/25 09:49:05;;;;;;;26.00;18.85;;;22.60;99.90;;;;;;5090121;28;20487;-60
2023/08/25 09:51:36;;;;;;;28.15;19.48;;;22.60;99.90;;;;;;5102414;28;20097;-59
2023/08/25 09:54:08;;;;;;;28.92;19.75;;;22.60;99.90;;;;;;5102479;28;20100;-61
2023/08/25 09:56:35;;;;;;;;;;;22.60;99.90;;;;;;5088375;28;20119;-57
2023/08/25 09:59:05;;;;;;;31.80;18.83;;;22.60;99.90;;;;;;5098884;28;19919;-61
2023/08/25 10:01:33;;;;;;;22.65;16.92;;;22.60;99.90;;;;;;5099942;28;20051;-59
2023/08/25 10:03:59;;;;;;;31.45;19.23;;;22.60;99.90;;;;;;5102310;28;20408;-59
2023/08/25 10:06:25;;;;;;;28.42;19.17;;;22.70;99.90;;;;;;5099832;28;20485;-61
2023/08/25 10:08:52;;;;;;;29.13;19.10;;;22.70;99.90;;;;;;5089706;28;20131;-61
2023/08/25 10:11:20;;;;;;;29.95;18.90;;;22.70;99.90;;;;;;5101295;28;20054;-60
2023/08/25 10:13:52;;;;;;;27.88;19.27;;;22.70;99.90;;;;;;5098406;28;20051;-61
2023/08/25 10:16:19;;;;;;;24.58;18.30;;;22.70;99.90;;;;;;5082844;28;20430;-60
2023/08/25 10:18:45;;;;;;;26.92;17.48;;;22.60;99.90;;;;;;5102753;28;20063;-58
2023/08/25 10:21:14;;;;;;;26.63;19.58;;;22.60;99.90;;;;;;5106203;28;20122;-61
2023/08/25 10:23:42;;;;;;;29.27;19.38;;;22.60;99.90;;;;;;5106199;28;20038;-60
2023/08/25 10:26:08;;;;;;;27.33;18.73;;;22.60;99.90;;;;;;5105705;28;20114;-61
2023/08/25 10:28:35;;;;;;;28.25;18.52;;;22.60;99.90;;;;;;5086357;28;20051;-60
2023/08/25 10:31:01;;;;;;;28.30;19.83;;;22.70;99.90;;;;;;5104364;27;20040;-60
2023/08/25 10:33:27;;;;;;;29.30;19.92;;;22.70;99.90;;;;;;5106841;27;20042;-60
2023/08/25 10:35:56;;;;;;;31.70;20.60;;;22.60;99.90;;;;;;5105857;28;20040;-59
2023/08/25 10:38:34;;;;;;;30.75;20.77;;;22.60;99.90;;;;;;5103873;28;20102;-60
2023/08/25 10:41:15;;;;;;;26.90;19.50;;;22.60;99.90;;;;;;5070412;28;20079;-58
2023/08/25 10:43:44;;;;;;;26.05;19.40;;;22.60;99.90;;;;;;5106133;28;20490;-61
2023/08/25 10:46:10;;;;;;;27.23;20.80;;;22.60;99.90;;;;;;5105813;28;20581;-60
2023/08/25 10:48:43;;;;;;;34.58;20.88;;;22.60;99.90;;;;;;5105025;28;20090;-60
2023/08/25 10:51:10;;;;;;;36.70;21.83;;;22.60;99.90;;;;;;5106236;28;20043;-60
2023/08/25 10:53:45;;;;;;;30.15;19.48;;;22.60;99.90;;;;;;5105552;28;20038;-60
2023/08/25 10:56:22;;;;;;;33.90;21.17;;;22.60;99.90;;;;;;5104658;28;20051;-61
2023/08/25 10:59:01;;;;;;;30.73;21.52;;;22.60;99.90;;;;;;5103000;28;20061;-60
2023/08/25 11:01:53;;;;;;;32.28;22.50;;;22.60;99.90;;;;;;5085178;28;20492;-59
2023/08/25 11:04:24;;;;;;;34.13;21.97;;;22.60;99.90;;;;;;5105882;28;20443;-58
2023/08/25 11:06:51;;;;;;;32.92;21.13;;;22.60;99.90;;;;;;5104895;28;20047;-60
2023/08/25 11:09:32;;;;;;;30.98;21.33;;;22.60;99.90;;;;;;5106867;28;20047;-61
2023/08/25 11:12:06;;;;;;;33.05;21.70;;;22.60;99.90;;;;;;5105129;28;20062;-61
2023/08/25 11:14:42;;;;;;;37.22;22.88;;;22.60;99.90;;;;;;5098489;28;20044;-60
2023/08/25 11:17:09;;;;;;;36.20;23.15;;;22.50;99.90;;;;;;5097244;28;20235;-60
2023/08/25 11:19:38;;;;;;;33.35;22.38;;;22.50;99.90;;;;;;5085432;28;20054;-60
2023/08/25 11:22:13;;;;;;;31.27;21.45;;;22.40;99.90;;;;;;5099399;28;20035;-61
2023/08/25 11:24:39;;;;;;;31.70;20.65;;;22.40;99.90;;;;;;5097710;28;20042;-61
2023/08/25 11:27:10;;;;;;;33.08;22.85;;;22.30;99.90;;;;;;5097877;28;20577;-60
2023/08/25 11:29:45;;;;;;;34.05;23.67;;;22.30;99.90;;;;;;5098999;28;20046;-59
2023/08/25 11:32:15;;;;;;;32.63;23.63;;;22.30;99.90;;;;;;5096545;28;20629;-60
2023/08/25 11:34:50;;;;;;;31.67;23.17;;;22.30;99.90;;;;;;5097274;28;20117;-60
2023/08/25 11:37:16;;;;;;;33.78;23.38;;;22.20;99.90;;;;;;5082449;28;20446;-61
2023/08/25 11:39:43;;;;;;;35.53;24.10;;;22.10;99.90;;;;;;5098881;28;20044;-61
2023/08/25 11:42:09;;;;;;;35.92;24.25;;;22.10;99.90;;;;;;5099177;28;20043;-60
2023/08/25 11:44:40;;;;;;;41.90;27.08;;;22.10;99.90;;;;;;5098051;28;20501;-61
2023/08/25 11:47:06;;;;;;;34.78;25.70;;;22.10;99.90;;;;;;5079516;28;20028;-60
2023/08/25 11:49:33;;;;;;;36.92;26.98;;;22.10;99.90;;;;;;5097602;28;20139;-60
2023/08/25 11:52:00;;;;;;;38.60;26.73;;;22.20;99.90;;;;;;5098351;28;20197;-58
2023/08/25 11:54:28;;;;;;;34.50;24.30;;;22.30;99.90;;;;;;5080025;28;20508;-60
2023/08/25 11:56:54;;;;;;;35.08;25.45;;;22.50;99.90;;;;;;5096197;28;20072;-59
2023/08/25 11:59:20;;;;;;;45.22;30.75;;;22.80;99.90;;;;;;5078730;28;20039;-60
2023/08/25 12:01:50;;;;;;;34.42;25.95;;;23.30;99.90;;;;;;5078680;28;20325;-60
2023/08/25 12:04:25;;;;;;;34.38;24.15;;;23.70;99.90;;;;;;5098109;28;20048;-61
2023/08/25 12:06:57;;;;;;;34.90;25.02;;;23.80;99.90;;;;;;5098490;28;20040;-58
2023/08/25 12:09:24;;;;;;;31.40;21.42;;;23.90;99.90;;;;;;5097133;28;20505;-60
2023/08/25 12:11:54;;;;;;;30.83;19.17;;;23.80;99.90;;;;;;5098823;28;20063;-61
2023/08/25 12:14:27;;;;;;;28.75;19.10;;;23.70;99.90;;;;;;5097227;28;20558;-62
2023/08/25 12:16:54;;;;;;;33.20;19.58;;;23.50;99.90;;;;;;5096681;28;20052;-60
2023/08/25 12:19:28;;;;;;;31.05;20.50;;;23.40;99.90;;;;;;5099506;28;20032;-61
2023/08/25 12:21:56;;;;;;;28.10;20.02;;;23.40;99.90;;;;;;5099179;28;20042;-61
2023/08/25 12:24:22;;;;;;;30.70;19.63;;;23.30;99.90;;;;;;5098379;28;20474;-61
2023/08/25 12:26:48;;;;;;;27.98;19.08;;;23.30;99.90;;;;;;5099696;28;20152;-60
2023/08/25 12:29:15;;;;;;;26.33;18.92;;;23.30;99.90;;;;;;5099383;28;20241;-60